JZR102 OKKK-OBBI
Flight info
| Callsign | JZR102 |
|---|---|
| Flight time | N/A |
| Altitude | 25000 |
| Route | BOXIK B416 IMDOX P975 LONOS L703 KOBOK |
| Aircraft | A320/M-SDE3FGHIRWY/LB1 |
Departure
| Time | 2026-04-27 15:59 |
|---|---|
| Airport | Kuwait International Airport (OKKK) |
Arrival
| Time | N/A |
|---|---|
| Airport | Bahrain International Airport (OBBI) |
| Time | Latitude | Longitude | Altitude | Speed | Heading |
|---|---|---|---|---|---|
| 2026-04-27 14:57 | 29.23840 | 47.97259 | 153 ft | 0 kts | 272° |
| 2026-04-27 15:47 | 29.23839 | 47.97274 | 153 ft | 4 kts | 269° |
| 2026-04-27 15:47 | 29.23842 | 47.97304 | 153 ft | 4 kts | 258° |
| 2026-04-27 15:48 | 29.23849 | 47.97334 | 153 ft | 4 kts | 245° |
| 2026-04-27 15:48 | 29.23857 | 47.97352 | 153 ft | 4 kts | 232° |
| 2026-04-27 15:48 | 29.23876 | 47.97371 | 152 ft | 4 kts | 197° |
| 2026-04-27 15:49 | 29.23893 | 47.97373 | 152 ft | 0 kts | 171° |
| 2026-04-27 15:54 | 29.23870 | 47.97378 | 152 ft | 6 kts | 167° |
| 2026-04-27 15:54 | 29.23808 | 47.97405 | 153 ft | 12 kts | 155° |
| 2026-04-27 15:54 | 29.23715 | 47.97453 | 154 ft | 17 kts | 161° |
| 2026-04-27 15:55 | 29.23659 | 47.97456 | 154 ft | 3 kts | 221° |
| 2026-04-27 15:55 | 29.23642 | 47.97428 | 155 ft | 6 kts | 237° |
| 2026-04-27 15:55 | 29.23618 | 47.97361 | 156 ft | 13 kts | 248° |
| 2026-04-27 15:55 | 29.23571 | 47.97235 | 157 ft | 21 kts | 247° |
| 2026-04-27 15:56 | 29.23502 | 47.97053 | 159 ft | 29 kts | 244° |
| 2026-04-27 15:56 | 29.23422 | 47.96859 | 161 ft | 30 kts | 248° |
| 2026-04-27 15:56 | 29.23397 | 47.96764 | 163 ft | 12 kts | 275° |
| 2026-04-27 15:56 | 29.23484 | 47.96704 | 162 ft | 20 kts | 333° |
| 2026-04-27 15:57 | 29.23642 | 47.96619 | 160 ft | 30 kts | 335° |
| 2026-04-27 15:57 | 29.23849 | 47.96508 | 157 ft | 23 kts | 334° |
| 2026-04-27 15:57 | 29.24023 | 47.96414 | 154 ft | 32 kts | 335° |
| 2026-04-27 15:57 | 29.24084 | 47.96312 | 157 ft | 17 kts | 244° |
| 2026-04-27 15:58 | 29.24017 | 47.96191 | 170 ft | 21 kts | 200° |
| 2026-04-27 15:58 | 29.23933 | 47.96218 | 170 ft | 0 kts | 159° |
| 2026-04-27 15:58 | 29.23899 | 47.96236 | 170 ft | 29 kts | 155° |
| 2026-04-27 15:58 | 29.23480 | 47.96461 | 179 ft | 100 kts | 154° |
| 2026-04-27 15:59 | 29.22667 | 47.96895 | 189 ft | 155 kts | 155° |
| 2026-04-27 15:59 | 29.21635 | 47.97405 | 624 ft | 168 kts | 158° |
| 2026-04-27 15:59 | 29.20542 | 47.97990 | 1256 ft | 176 kts | 143° |
| 2026-04-27 15:59 | 29.19802 | 47.99131 | 1809 ft | 189 kts | 118° |
| 2026-04-27 16:00 | 29.19184 | 48.00571 | 2075 ft | 214 kts | 117° |
| 2026-04-27 16:00 | 29.18495 | 48.02191 | 2434 ft | 239 kts | 117° |
| 2026-04-27 16:00 | 29.17729 | 48.03982 | 2850 ft | 261 kts | 117° |
| 2026-04-27 16:00 | 29.16915 | 48.05881 | 3546 ft | 270 kts | 117° |
| 2026-04-27 16:01 | 29.16070 | 48.07841 | 3926 ft | 276 kts | 117° |
| 2026-04-27 16:01 | 29.15275 | 48.09852 | 4233 ft | 279 kts | 107° |
| 2026-04-27 16:01 | 29.15082 | 48.12060 | 4538 ft | 281 kts | 90° |
| 2026-04-27 16:01 | 29.15086 | 48.14304 | 4839 ft | 282 kts | 90° |
| 2026-04-27 16:02 | 29.15096 | 48.16558 | 5139 ft | 284 kts | 90° |
| 2026-04-27 16:02 | 29.15104 | 48.18826 | 5440 ft | 286 kts | 90° |
| 2026-04-27 16:02 | 29.15108 | 48.21106 | 5775 ft | 287 kts | 90° |
| 2026-04-27 16:02 | 29.15109 | 48.23396 | 6151 ft | 290 kts | 89° |
| 2026-04-27 16:03 | 29.15112 | 48.25710 | 6529 ft | 291 kts | 89° |
| 2026-04-27 16:03 | 29.15114 | 48.28032 | 6915 ft | 293 kts | 89° |
| 2026-04-27 16:03 | 29.15117 | 48.30371 | 7281 ft | 295 kts | 89° |
| 2026-04-27 16:03 | 29.14920 | 48.32707 | 7654 ft | 297 kts | 105° |
| 2026-04-27 16:04 | 29.14055 | 48.34846 | 8030 ft | 299 kts | 124° |
| 2026-04-27 16:04 | 29.12871 | 48.36802 | 8510 ft | 300 kts | 126° |
| 2026-04-27 16:04 | 29.11662 | 48.38764 | 9020 ft | 303 kts | 126° |
| 2026-04-27 16:04 | 29.10437 | 48.40744 | 9512 ft | 306 kts | 126° |
| 2026-04-27 16:05 | 29.09204 | 48.42736 | 10022 ft | 309 kts | 126° |
| 2026-04-27 16:05 | 29.07935 | 48.44779 | 10527 ft | 321 kts | 127° |
| 2026-04-27 16:05 | 29.06615 | 48.46904 | 11034 ft | 334 kts | 127° |
| 2026-04-27 16:05 | 29.05248 | 48.49105 | 11542 ft | 345 kts | 127° |
| 2026-04-27 16:06 | 29.03834 | 48.51382 | 12049 ft | 357 kts | 127° |
| 2026-04-27 16:06 | 29.02394 | 48.53702 | 12551 ft | 368 kts | 127° |
| 2026-04-27 16:06 | 29.00875 | 48.56151 | 13059 ft | 376 kts | 127° |
| 2026-04-27 16:06 | 28.99374 | 48.58569 | 13553 ft | 380 kts | 127° |
| 2026-04-27 16:07 | 28.97836 | 48.61044 | 14113 ft | 384 kts | 127° |
| 2026-04-27 16:07 | 28.96281 | 48.63548 | 14782 ft | 388 kts | 127° |
| 2026-04-27 16:07 | 28.94712 | 48.66072 | 15434 ft | 392 kts | 127° |
| 2026-04-27 16:07 | 28.93127 | 48.68622 | 16073 ft | 395 kts | 128° |
| 2026-04-27 16:08 | 28.91530 | 48.71190 | 16702 ft | 399 kts | 128° |
| 2026-04-27 16:08 | 28.89917 | 48.73779 | 17313 ft | 402 kts | 128° |
| 2026-04-27 16:08 | 28.88288 | 48.76397 | 17903 ft | 406 kts | 128° |
| 2026-04-27 16:08 | 28.86645 | 48.79033 | 18504 ft | 410 kts | 128° |
| 2026-04-27 16:09 | 28.84988 | 48.81694 | 19071 ft | 414 kts | 128° |
| 2026-04-27 16:09 | 28.81613 | 48.87100 | 20137 ft | 422 kts | 129° |
| 2026-04-27 16:09 | 28.79898 | 48.89839 | 20634 ft | 428 kts | 129° |
| 2026-04-27 16:10 | 28.76377 | 48.95453 | 21610 ft | 437 kts | 129° |
| 2026-04-27 16:10 | 28.72835 | 49.01096 | 22517 ft | 444 kts | 129° |
| 2026-04-27 16:11 | 28.71005 | 49.04012 | 22956 ft | 448 kts | 129° |
| 2026-04-27 16:11 | 28.67373 | 49.09796 | 23768 ft | 456 kts | 129° |
| 2026-04-27 16:12 | 28.63660 | 49.15704 | 24526 ft | 463 kts | 129° |
| 2026-04-27 16:12 | 28.61773 | 49.18704 | 24735 ft | 466 kts | 130° |
| 2026-04-27 16:12 | 28.57447 | 49.24205 | 24776 ft | 460 kts | 146° |
| 2026-04-27 16:13 | 28.54841 | 49.26274 | 24779 ft | 454 kts | 155° |
| 2026-04-27 16:13 | 28.49469 | 49.29933 | 24770 ft | 460 kts | 146° |
| 2026-04-27 16:13 | 28.47058 | 49.32325 | 24783 ft | 462 kts | 143° |
| 2026-04-27 16:14 | 28.42194 | 49.37200 | 24774 ft | 462 kts | 144° |
| 2026-04-27 16:14 | 28.37367 | 49.41989 | 24777 ft | 461 kts | 144° |
| 2026-04-27 16:15 | 28.32559 | 49.46745 | 24775 ft | 461 kts | 144° |
| 2026-04-27 16:15 | 28.27724 | 49.51526 | 24782 ft | 461 kts | 144° |
| 2026-04-27 16:16 | 28.22882 | 49.56288 | 24788 ft | 461 kts | 144° |
| 2026-04-27 16:16 | 28.17950 | 49.60885 | 24795 ft | 457 kts | 148° |
| 2026-04-27 16:17 | 28.12859 | 49.65183 | 24796 ft | 456 kts | 149° |
| 2026-04-27 16:17 | 28.07747 | 49.69437 | 24794 ft | 456 kts | 149° |
| 2026-04-27 16:18 | 28.02658 | 49.73710 | 24793 ft | 455 kts | 150° |
| 2026-04-27 16:18 | 27.97473 | 49.77785 | 24794 ft | 453 kts | 152° |
| 2026-04-27 16:19 | 27.94861 | 49.79772 | 24789 ft | 452 kts | 152° |
| 2026-04-27 16:19 | 27.92244 | 49.81759 | 24788 ft | 453 kts | 152° |
| 2026-04-27 16:20 | 27.84430 | 49.87770 | 24776 ft | 453 kts | 151° |
| 2026-04-27 16:20 | 27.81834 | 49.89787 | 24784 ft | 454 kts | 151° |
| 2026-04-27 16:20 | 27.76634 | 49.93831 | 24774 ft | 453 kts | 151° |
| 2026-04-27 16:21 | 27.74034 | 49.95843 | 24777 ft | 453 kts | 151° |
| 2026-04-27 16:21 | 27.66219 | 50.01874 | 24774 ft | 454 kts | 151° |
| 2026-04-27 16:22 | 27.63615 | 50.03887 | 24781 ft | 454 kts | 151° |
| 2026-04-27 16:22 | 27.58405 | 50.07902 | 24775 ft | 454 kts | 152° |
| 2026-04-27 16:22 | 27.55796 | 50.09908 | 24778 ft | 454 kts | 152° |
| 2026-04-27 16:23 | 27.53182 | 50.11921 | 24773 ft | 455 kts | 151° |
| 2026-04-27 16:23 | 27.47990 | 50.15922 | 24317 ft | 450 kts | 151° |
| 2026-04-27 16:23 | 27.45408 | 50.17909 | 24085 ft | 448 kts | 151° |
| 2026-04-27 16:24 | 27.42847 | 50.19899 | 23825 ft | 446 kts | 150° |
| 2026-04-27 16:24 | 27.37822 | 50.23965 | 23329 ft | 444 kts | 149° |
| 2026-04-27 16:25 | 27.32862 | 50.28047 | 22827 ft | 440 kts | 149° |
| 2026-04-27 16:25 | 27.27929 | 50.32063 | 22326 ft | 436 kts | 149° |
| 2026-04-27 16:26 | 27.23041 | 50.36014 | 21632 ft | 428 kts | 149° |
| 2026-04-27 16:26 | 27.18292 | 50.39849 | 20869 ft | 414 kts | 148° |
| 2026-04-27 16:27 | 27.13696 | 50.43558 | 20113 ft | 401 kts | 148° |
| 2026-04-27 16:27 | 27.07077 | 50.48877 | 18996 ft | 379 kts | 148° |
| 2026-04-27 16:28 | 27.02832 | 50.52285 | 18241 ft | 370 kts | 147° |
| 2026-04-27 16:28 | 26.98502 | 50.55245 | 17252 ft | 362 kts | 161° |
| 2026-04-27 16:29 | 26.91216 | 50.56664 | 15751 ft | 354 kts | 181° |
| 2026-04-27 16:30 | 26.86299 | 50.56891 | 14748 ft | 353 kts | 181° |
| 2026-04-27 16:30 | 26.81410 | 50.57118 | 13965 ft | 346 kts | 180° |
| 2026-04-27 16:31 | 26.74509 | 50.57439 | 13280 ft | 317 kts | 181° |
| 2026-04-27 16:31 | 26.70134 | 50.57634 | 12688 ft | 313 kts | 181° |
| 2026-04-27 16:32 | 26.66531 | 50.57794 | 12190 ft | 311 kts | 181° |
| 2026-04-27 16:32 | 26.64388 | 50.57891 | 11932 ft | 304 kts | 180° |
| 2026-04-27 16:33 | 26.60242 | 50.58077 | 11430 ft | 293 kts | 180° |
| 2026-04-27 16:33 | 26.58221 | 50.58167 | 11178 ft | 289 kts | 180° |
| 2026-04-27 16:33 | 26.56222 | 50.58257 | 10887 ft | 286 kts | 180° |
| 2026-04-27 16:33 | 26.54243 | 50.58346 | 10622 ft | 282 kts | 180° |
| 2026-04-27 16:34 | 26.52308 | 50.58696 | 10262 ft | 284 kts | 162° |
| 2026-04-27 16:34 | 26.50587 | 50.59777 | 9912 ft | 286 kts | 140° |
| 2026-04-27 16:34 | 26.49312 | 50.61472 | 9562 ft | 287 kts | 119° |
| 2026-04-27 16:34 | 26.48658 | 50.63559 | 9211 ft | 285 kts | 97° |
| 2026-04-27 16:35 | 26.48535 | 50.65755 | 8861 ft | 283 kts | 95° |
| 2026-04-27 16:35 | 26.48144 | 50.67896 | 8508 ft | 281 kts | 108° |
| 2026-04-27 16:35 | 26.46515 | 50.71808 | 7769 ft | 279 kts | 122° |
| 2026-04-27 16:36 | 26.45477 | 50.73643 | 7353 ft | 279 kts | 123° |
| 2026-04-27 16:36 | 26.44434 | 50.75468 | 6927 ft | 279 kts | 123° |
| 2026-04-27 16:36 | 26.43389 | 50.77298 | 6504 ft | 282 kts | 123° |
| 2026-04-27 16:36 | 26.42329 | 50.79150 | 6073 ft | 283 kts | 125° |
| 2026-04-27 16:37 | 26.40958 | 50.80685 | 5641 ft | 279 kts | 151° |
| 2026-04-27 16:37 | 26.39177 | 50.81334 | 5211 ft | 264 kts | 180° |
| 2026-04-27 16:37 | 26.37445 | 50.80975 | 4787 ft | 247 kts | 207° |
| 2026-04-27 16:37 | 26.35954 | 50.80106 | 4362 ft | 238 kts | 212° |
| 2026-04-27 16:38 | 26.34561 | 50.79205 | 3940 ft | 232 kts | 212° |
| 2026-04-27 16:38 | 26.33185 | 50.78299 | 3514 ft | 228 kts | 213° |
| 2026-04-27 16:38 | 26.31924 | 50.77234 | 3089 ft | 220 kts | 238° |
| 2026-04-27 16:38 | 26.31421 | 50.75703 | 3038 ft | 215 kts | 269° |
| 2026-04-27 16:39 | 26.31743 | 50.74057 | 3027 ft | 231 kts | 297° |
| 2026-04-27 16:39 | 26.32566 | 50.72476 | 3011 ft | 240 kts | 302° |
| 2026-04-27 16:39 | 26.33464 | 50.70892 | 3009 ft | 242 kts | 303° |
| 2026-04-27 16:39 | 26.34368 | 50.69313 | 3008 ft | 242 kts | 303° |
| 2026-04-27 16:40 | 26.35274 | 50.67734 | 3006 ft | 242 kts | 303° |
| 2026-04-27 16:40 | 26.36182 | 50.66153 | 3005 ft | 242 kts | 303° |
| 2026-04-27 16:40 | 26.37089 | 50.64573 | 3008 ft | 242 kts | 303° |
| 2026-04-27 16:40 | 26.37971 | 50.63038 | 3002 ft | 226 kts | 303° |
| 2026-04-27 16:41 | 26.38786 | 50.61616 | 3002 ft | 209 kts | 303° |
| 2026-04-27 16:41 | 26.39549 | 50.60282 | 3001 ft | 201 kts | 303° |
| 2026-04-27 16:41 | 26.40301 | 50.58969 | 3005 ft | 201 kts | 303° |
| 2026-04-27 16:41 | 26.41052 | 50.57656 | 3004 ft | 201 kts | 303° |
| 2026-04-27 16:42 | 26.41803 | 50.56345 | 3002 ft | 200 kts | 303° |
| 2026-04-27 16:42 | 26.42548 | 50.55031 | 3000 ft | 200 kts | 300° |
| 2026-04-27 16:42 | 26.42870 | 50.53543 | 3040 ft | 203 kts | 265° |
| 2026-04-27 16:42 | 26.42317 | 50.52115 | 3008 ft | 206 kts | 229° |
| 2026-04-27 16:43 | 26.41187 | 50.51128 | 2988 ft | 208 kts | 215° |
| 2026-04-27 16:43 | 26.39955 | 50.50266 | 2984 ft | 209 kts | 213° |
| 2026-04-27 16:43 | 26.38621 | 50.49649 | 2986 ft | 211 kts | 187° |
| 2026-04-27 16:43 | 26.37221 | 50.49951 | 2983 ft | 198 kts | 149° |
| 2026-04-27 16:44 | 26.36396 | 50.51010 | 2984 ft | 172 kts | 109° |
| 2026-04-27 16:44 | 26.35966 | 50.52205 | 2983 ft | 162 kts | 117° |
| 2026-04-27 16:44 | 26.35175 | 50.53047 | 2978 ft | 158 kts | 159° |
| 2026-04-27 16:44 | 26.34119 | 50.53375 | 2997 ft | 157 kts | 170° |
| 2026-04-27 16:45 | 26.33045 | 50.53571 | 3001 ft | 156 kts | 173° |
| 2026-04-27 16:45 | 26.31973 | 50.53744 | 3007 ft | 155 kts | 173° |
| 2026-04-27 16:45 | 26.30901 | 50.53911 | 3006 ft | 156 kts | 173° |
| 2026-04-27 16:45 | 26.29826 | 50.54075 | 3001 ft | 156 kts | 173° |
| 2026-04-27 16:46 | 26.28755 | 50.54241 | 3001 ft | 156 kts | 173° |
| 2026-04-27 16:46 | 26.27681 | 50.54409 | 3002 ft | 155 kts | 171° |
| 2026-04-27 16:46 | 26.26747 | 50.54965 | 2978 ft | 157 kts | 129° |
| 2026-04-27 16:46 | 26.26105 | 50.55933 | 2973 ft | 155 kts | 124° |
| 2026-04-27 16:47 | 26.25494 | 50.56933 | 2988 ft | 156 kts | 123° |
| 2026-04-27 16:47 | 26.24891 | 50.57937 | 3000 ft | 156 kts | 122° |
| 2026-04-27 16:47 | 26.24607 | 50.59062 | 2999 ft | 152 kts | 75° |
| 2026-04-27 16:47 | 26.25113 | 50.60048 | 2968 ft | 149 kts | 34° |
| 2026-04-27 16:48 | 26.25992 | 50.60631 | 2947 ft | 147 kts | 29° |
| 2026-04-27 16:48 | 26.26859 | 50.61269 | 3366 ft | 146 kts | 32° |
| 2026-04-27 16:48 | 26.27712 | 50.61938 | 3661 ft | 160 kts | 33° |
| 2026-04-27 16:49 | 26.29834 | 50.63602 | 3351 ft | 200 kts | 33° |
| 2026-04-27 16:49 | 26.30975 | 50.64496 | 3112 ft | 201 kts | 33° |
| 2026-04-27 16:49 | 26.32115 | 50.65388 | 3005 ft | 200 kts | 33° |
| 2026-04-27 16:49 | 26.33251 | 50.66277 | 3005 ft | 199 kts | 33° |
| 2026-04-27 16:50 | 26.34384 | 50.67163 | 3007 ft | 199 kts | 33° |
| 2026-04-27 16:50 | 26.35517 | 50.68056 | 3008 ft | 199 kts | 33° |
| 2026-04-27 16:50 | 26.36647 | 50.68948 | 3010 ft | 199 kts | 33° |
| 2026-04-27 16:50 | 26.37779 | 50.69843 | 3009 ft | 199 kts | 33° |
| 2026-04-27 16:51 | 26.38912 | 50.70740 | 3010 ft | 199 kts | 33° |
| 2026-04-27 16:51 | 26.40044 | 50.71635 | 3004 ft | 200 kts | 33° |
| 2026-04-27 16:51 | 26.41178 | 50.72529 | 3009 ft | 200 kts | 33° |